createdAt,value
2023-03-24T00:02:07.129Z,1.60
2023-03-24T00:04:34.603Z,1.73
2023-03-24T00:07:03.361Z,1.30
2023-03-24T00:09:31.022Z,1.77
2023-03-24T00:11:58.172Z,1.50
2023-03-24T00:14:26.066Z,1.52
2023-03-24T00:16:54.722Z,1.83
2023-03-24T00:19:22.647Z,1.30
2023-03-24T00:21:49.886Z,1.50
2023-03-24T00:24:17.178Z,1.80
2023-03-24T00:26:44.136Z,1.80
2023-03-24T00:29:11.869Z,1.60
2023-03-24T00:31:40.177Z,1.40
2023-03-24T00:34:13.569Z,1.55
2023-03-24T00:36:40.893Z,1.90
2023-03-24T00:39:08.309Z,1.70
2023-03-24T00:41:35.707Z,1.50
2023-03-24T00:44:06.812Z,1.67
2023-03-24T00:46:35.188Z,1.50
2023-03-24T00:49:06.174Z,1.40
2023-03-24T00:51:43.081Z,1.70
2023-03-24T00:54:12.720Z,1.58
2023-03-24T00:56:41.094Z,1.25
2023-03-24T00:59:10.428Z,1.80
2023-03-24T01:01:40.819Z,1.50
2023-03-24T01:04:08.450Z,1.42
2023-03-24T01:06:37.936Z,1.58
2023-03-24T01:09:06.629Z,1.50
2023-03-24T01:11:38.592Z,1.60
2023-03-24T01:14:06.236Z,1.40
2023-03-24T01:16:33.547Z,1.65
2023-03-24T01:19:01.878Z,1.23
2023-03-24T01:21:29.139Z,1.30
2023-03-24T01:23:56.659Z,1.23
2023-03-24T01:26:24.071Z,1.50
2023-03-24T01:28:51.371Z,1.40
2023-03-24T01:31:18.647Z,1.88
2023-03-24T01:33:46.257Z,2.25
2023-03-24T01:36:13.558Z,1.70
2023-03-24T01:38:41.066Z,1.50
2023-03-24T01:41:08.283Z,1.40
2023-03-24T01:43:35.979Z,1.60
2023-03-24T01:46:13.692Z,1.50
2023-03-24T01:48:46.778Z,1.40
2023-03-24T01:51:25.431Z,1.77
2023-03-24T01:54:03.476Z,1.67
2023-03-24T01:56:35.787Z,1.45
2023-03-24T01:59:08.358Z,1.25
2023-03-24T02:01:46.759Z,1.50
2023-03-24T02:04:28.327Z,1.35
2023-03-24T02:07:10.592Z,1.60
2023-03-24T02:09:37.388Z,1.20
2023-03-24T02:12:04.700Z,1.52
2023-03-24T02:14:33.291Z,1.25
2023-03-24T02:17:25.351Z,1.20
2023-03-24T02:20:12.410Z,1.38
2023-03-24T02:22:58.136Z,1.40
2023-03-24T02:25:31.436Z,1.13
2023-03-24T02:27:58.616Z,1.23
2023-03-24T02:30:53.271Z,1.50
2023-03-24T02:33:21.510Z,1.45
2023-03-24T02:36:15.606Z,1.48
2023-03-24T02:39:13.816Z,1.20
2023-03-24T02:42:08.245Z,1.35
2023-03-24T02:45:26.792Z,1.38
2023-03-24T02:48:17.044Z,1.13
2023-03-24T02:50:55.794Z,1.70
2023-03-24T02:54:07.285Z,1.30
2023-03-24T02:56:41.764Z,1.50
2023-03-24T02:59:48.398Z,1.13
2023-03-24T03:02:54.040Z,1.58
2023-03-24T03:05:30.157Z,1.30
2023-03-24T03:10:34.207Z,1.15
2023-03-24T03:13:07.250Z,1.38
2023-03-24T03:15:39.815Z,1.67
2023-03-24T03:18:14.277Z,1.60
2023-03-24T03:20:50.937Z,1.45
2023-03-24T03:23:24.892Z,1.55
2023-03-24T03:25:57.971Z,1.23
2023-03-24T03:28:29.855Z,1.27
2023-03-24T03:31:05.801Z,1.70
2023-03-24T03:36:22.534Z,1.48
2023-03-24T03:39:06.695Z,1.33
2023-03-24T03:41:33.671Z,1.52
2023-03-24T03:44:01.180Z,1.73
2023-03-24T03:46:28.546Z,1.27
2023-03-24T03:48:57.307Z,1.50
2023-03-24T03:51:24.442Z,1.70
2023-03-24T03:53:59.184Z,2.05
2023-03-24T03:56:33.579Z,1.77
2023-03-24T03:59:26.580Z,1.40
2023-03-24T04:01:54.293Z,1.50
2023-03-24T04:04:38.122Z,1.73
2023-03-24T04:07:33.709Z,2.00
2023-03-24T04:10:29.846Z,1.65
2023-03-24T04:13:17.899Z,1.73
2023-03-24T04:16:42.819Z,2.15
2023-03-24T04:19:16.054Z,1.77
2023-03-24T04:21:51.779Z,1.70
2023-03-24T04:24:54.721Z,1.80
2023-03-24T04:27:46.631Z,1.90
2023-03-24T04:30:17.082Z,1.70
2023-03-24T04:32:55.121Z,2.03
2023-03-24T04:35:33.873Z,2.10
2023-03-24T04:38:28.436Z,1.70
2023-03-24T04:41:10.541Z,1.98
2023-03-24T04:43:39.716Z,1.98
2023-03-24T04:46:10.033Z,2.03
2023-03-24T04:49:02.987Z,1.80
2023-03-24T04:51:33.137Z,1.90
2023-03-24T04:54:05.584Z,1.90
2023-03-24T04:56:47.736Z,1.52
2023-03-24T04:59:34.528Z,1.70
2023-03-24T05:02:03.921Z,1.80
2023-03-24T05:04:31.269Z,1.90
2023-03-24T05:07:05.508Z,1.48
2023-03-24T05:09:32.858Z,1.98
2023-03-24T05:12:01.915Z,1.80
2023-03-24T05:14:32.877Z,1.73
2023-03-24T05:17:00.517Z,1.63
2023-03-24T05:19:29.220Z,1.63
2023-03-24T05:21:56.699Z,1.35
2023-03-24T05:24:24.195Z,1.58
2023-03-24T05:26:51.475Z,1.48
2023-03-24T05:29:20.640Z,1.98
2023-03-24T05:31:48.435Z,1.77
2023-03-24T05:34:17.872Z,1.35
2023-03-24T05:36:56.764Z,2.10
2023-03-24T05:39:24.416Z,1.63
2023-03-24T05:42:01.438Z,1.80
2023-03-24T05:44:28.756Z,1.73
2023-03-24T05:47:08.077Z,1.50
2023-03-24T05:49:36.439Z,1.60
2023-03-24T05:52:03.726Z,2.10
2023-03-24T05:54:31.143Z,1.45
2023-03-24T05:57:16.648Z,1.35
2023-03-24T06:00:19.352Z,1.70
2023-03-24T06:02:59.355Z,1.80
2023-03-24T06:05:32.076Z,1.83
2023-03-24T06:08:01.425Z,1.38
2023-03-24T06:10:31.522Z,1.70
2023-03-24T06:13:00.691Z,1.40
2023-03-24T06:15:28.370Z,1.30
2023-03-24T06:18:02.095Z,1.88
2023-03-24T06:20:33.780Z,1.50
2023-03-24T06:23:04.558Z,1.67
2023-03-24T06:25:44.698Z,1.40
2023-03-24T06:28:21.110Z,1.63
2023-03-24T06:30:49.155Z,1.65
2023-03-24T06:33:25.910Z,1.67
2023-03-24T06:35:54.413Z,1.52
2023-03-24T06:38:22.226Z,1.40
2023-03-24T06:40:49.602Z,1.42
2023-03-24T06:43:16.905Z,1.70
2023-03-24T06:45:45.985Z,1.45
2023-03-24T06:48:19.817Z,1.58
2023-03-24T06:50:47.973Z,1.48
2023-03-24T06:53:15.657Z,1.50
2023-03-24T06:55:43.156Z,1.60
2023-03-24T06:58:11.740Z,1.40
2023-03-24T07:01:02.089Z,1.48
2023-03-24T07:04:07.243Z,1.77
2023-03-24T07:09:42.282Z,1.50
2023-03-24T07:12:09.677Z,1.85
2023-03-24T07:14:37.945Z,1.50
2023-03-24T07:17:07.147Z,1.70
2023-03-24T07:20:00.243Z,1.80
2023-03-24T07:22:49.648Z,1.35
2023-03-24T07:25:26.535Z,1.50
2023-03-24T07:28:01.525Z,1.63
2023-03-24T07:30:39.861Z,2.15
2023-03-24T07:33:12.673Z,1.52
2023-03-24T07:35:42.042Z,1.95
2023-03-24T07:38:10.718Z,1.90
2023-03-24T07:40:38.460Z,1.60
2023-03-24T07:43:06.664Z,1.70
2023-03-24T07:45:45.641Z,1.60
2023-03-24T07:48:14.352Z,1.45
2023-03-24T07:50:41.673Z,1.52
2023-03-24T07:53:28.827Z,1.80
2023-03-24T07:55:56.214Z,2.03
2023-03-24T07:58:24.620Z,2.10
2023-03-24T08:01:02.889Z,1.95
2023-03-24T08:03:40.857Z,1.88
2023-03-24T08:06:17.137Z,1.92
2023-03-24T08:08:49.881Z,1.80
2023-03-24T08:11:17.132Z,1.65
2023-03-24T08:13:44.348Z,2.08
2023-03-24T08:16:11.726Z,2.10
2023-03-24T08:18:39.059Z,1.75
2023-03-24T08:21:06.563Z,1.98
2023-03-24T08:23:33.988Z,2.00
2023-03-24T08:26:01.332Z,1.73
2023-03-24T08:28:28.624Z,2.05
2023-03-24T08:30:55.539Z,2.58
2023-03-24T08:33:23.035Z,2.03
2023-03-24T08:35:51.665Z,2.13
2023-03-24T08:38:23.089Z,2.10
2023-03-24T08:40:52.149Z,2.80
2023-03-24T08:43:23.170Z,2.45
2023-03-24T08:45:50.802Z,2.22
2023-03-24T08:48:18.348Z,2.53
2023-03-24T08:50:45.767Z,2.20
2023-03-24T08:53:14.372Z,2.40
2023-03-24T08:55:44.833Z,2.33
2023-03-24T08:58:17.443Z,2.47
2023-03-24T09:00:46.104Z,2.55
2023-03-24T09:03:18.462Z,2.28
2023-03-24T09:05:47.462Z,2.92
2023-03-24T09:08:17.140Z,2.30
2023-03-24T09:10:46.948Z,2.00
2023-03-24T09:13:15.387Z,2.25
2023-03-24T09:15:51.545Z,2.63
2023-03-24T09:18:20.205Z,1.88
2023-03-24T09:20:47.923Z,2.10
2023-03-24T09:23:15.351Z,2.13
2023-03-24T09:25:42.564Z,1.80
2023-03-24T09:28:09.759Z,2.03
2023-03-24T09:30:37.070Z,1.95
2023-03-24T09:33:04.384Z,1.42
2023-03-24T09:35:32.284Z,1.67
2023-03-24T09:37:59.559Z,2.03
2023-03-24T09:40:29.457Z,1.50
2023-03-24T09:43:31.221Z,1.80
2023-03-24T09:46:02.147Z,1.77
2023-03-24T09:48:44.636Z,1.65
2023-03-24T09:51:33.858Z,1.63
2023-03-24T09:54:01.061Z,1.88
2023-03-24T09:56:29.924Z,1.48
2023-03-24T09:59:08.215Z,1.58
2023-03-24T10:01:36.409Z,2.00
2023-03-24T10:04:05.362Z,1.88
2023-03-24T10:06:40.096Z,1.73
2023-03-24T10:09:22.748Z,1.55
2023-03-24T10:12:01.290Z,1.50
2023-03-24T10:14:49.905Z,1.67
2023-03-24T10:17:22.009Z,1.63
2023-03-24T10:20:01.418Z,1.77
2023-03-24T10:23:03.985Z,1.42
2023-03-24T10:25:56.344Z,1.60
2023-03-24T10:28:43.228Z,1.88
2023-03-24T10:31:16.238Z,1.10
2023-03-24T10:33:45.206Z,0.85
2023-03-24T10:36:16.252Z,0.88
2023-03-24T10:38:43.132Z,0.82
2023-03-24T10:41:18.901Z,1.10
2023-03-24T10:43:47.294Z,0.82
2023-03-24T10:46:22.339Z,1.08
2023-03-24T10:48:51.618Z,0.87
2023-03-24T10:51:21.726Z,1.00
2023-03-24T10:53:50.555Z,0.80
2023-03-24T10:56:37.031Z,0.80
2023-03-24T10:59:06.565Z,1.08
2023-03-24T11:01:35.291Z,0.80
2023-03-24T11:04:07.202Z,1.00
2023-03-24T11:06:34.208Z,0.57
2023-03-24T11:09:29.662Z,0.90
2023-03-24T11:11:58.517Z,1.00
2023-03-24T11:14:28.909Z,0.70
2023-03-24T11:17:15.362Z,0.82
2023-03-24T11:19:53.660Z,0.70
2023-03-24T11:22:21.626Z,1.00
2023-03-24T11:24:54.479Z,0.80
2023-03-24T11:27:21.944Z,1.05
2023-03-24T11:29:54.257Z,0.90
2023-03-24T11:32:27.332Z,0.80
2023-03-24T11:35:05.830Z,0.82
2023-03-24T11:37:36.152Z,0.95
2023-03-24T11:40:12.122Z,1.02
2023-03-24T11:42:48.092Z,0.80
2023-03-24T11:45:35.606Z,0.50
2023-03-24T11:48:11.384Z,0.80
2023-03-24T11:50:39.457Z,0.77
2023-03-24T11:53:13.624Z,0.88
2023-03-24T11:56:01.972Z,0.80
2023-03-24T11:58:34.989Z,1.02
2023-03-24T12:01:22.014Z,0.70
2023-03-24T12:03:49.356Z,0.85
2023-03-24T12:06:28.243Z,0.77
2023-03-24T12:09:04.685Z,1.27
2023-03-24T12:11:49.950Z,0.88
2023-03-24T12:14:28.522Z,0.90
2023-03-24T12:17:17.527Z,0.85
2023-03-24T12:20:07.168Z,0.70
2023-03-24T12:23:12.599Z,0.75
2023-03-24T12:26:17.479Z,1.08
2023-03-24T12:28:59.183Z,0.98
2023-03-24T12:31:43.934Z,1.13
2023-03-24T12:34:11.388Z,0.95
2023-03-24T12:36:50.514Z,1.30
2023-03-24T12:39:35.610Z,1.15
2023-03-24T12:42:02.865Z,0.85
2023-03-24T12:44:46.077Z,1.20
2023-03-24T12:47:44.660Z,1.05
2023-03-24T12:50:36.818Z,0.80
2023-03-24T12:53:08.592Z,1.08
2023-03-24T12:56:06.535Z,1.08
2023-03-24T13:01:20.144Z,0.85
2023-03-24T13:03:55.697Z,1.30
2023-03-24T13:06:23.333Z,1.30
2023-03-24T13:09:10.998Z,0.93
2023-03-24T13:11:47.739Z,1.17
2023-03-24T13:14:20.949Z,1.10
2023-03-24T13:16:48.523Z,0.80
2023-03-24T13:19:23.800Z,0.90
2023-03-24T13:21:53.769Z,1.35
2023-03-24T13:24:22.334Z,1.00
2023-03-24T13:27:11.376Z,1.27
2023-03-24T13:29:48.410Z,0.80
2023-03-24T13:32:16.405Z,1.05
2023-03-24T13:35:21.737Z,0.85
2023-03-24T13:37:55.881Z,1.05
2023-03-24T13:40:37.832Z,1.00
2023-03-24T13:43:12.243Z,1.00
2023-03-24T13:45:39.503Z,0.98
2023-03-24T13:48:12.219Z,1.10
2023-03-24T13:50:47.187Z,1.40
2023-03-24T13:53:16.077Z,1.17
2023-03-24T13:55:52.425Z,1.00
2023-03-24T13:58:25.528Z,1.10
2023-03-24T14:01:10.974Z,1.30
2023-03-24T14:04:19.034Z,1.20
2023-03-24T14:06:51.171Z,1.05
2023-03-24T14:09:30.831Z,0.85
2023-03-24T14:12:03.805Z,0.85
2023-03-24T14:14:35.295Z,0.98
2023-03-24T14:17:08.016Z,1.10
2023-03-24T14:19:41.925Z,1.10
2023-03-24T14:22:25.932Z,1.00
2023-03-24T14:25:15.959Z,1.42
2023-03-24T14:27:47.362Z,0.98
2023-03-24T14:30:25.014Z,1.33
2023-03-24T14:33:00.189Z,0.90
2023-03-24T14:35:39.401Z,1.02
2023-03-24T14:38:24.900Z,0.80
2023-03-24T14:41:00.328Z,0.73
2023-03-24T14:43:57.590Z,1.00
2023-03-24T14:46:35.548Z,1.10
2023-03-24T14:49:23.553Z,1.13
2023-03-24T14:51:50.343Z,1.27
2023-03-24T14:54:51.229Z,1.10
2023-03-24T14:57:23.785Z,1.00
2023-03-24T15:00:15.675Z,1.17
2023-03-24T15:02:47.991Z,1.10
2023-03-24T15:05:15.440Z,0.95
2023-03-24T15:07:59.190Z,0.88
2023-03-24T15:10:27.381Z,1.08
2023-03-24T15:12:54.159Z,0.98
2023-03-24T15:15:25.293Z,1.52
2023-03-24T15:17:52.657Z,0.80
2023-03-24T15:20:35.726Z,1.63
2023-03-24T15:23:08.145Z,1.50
2023-03-24T15:25:35.130Z,0.80
2023-03-24T15:28:01.933Z,0.90
2023-03-24T15:30:29.059Z,0.85
2023-03-24T15:32:56.395Z,0.88
2023-03-24T15:35:24.274Z,0.75
2023-03-24T15:37:54.481Z,1.10
2023-03-24T15:40:27.172Z,0.80
2023-03-24T15:42:56.451Z,1.20
2023-03-24T15:45:33.735Z,0.73
2023-03-24T15:48:19.938Z,0.80
2023-03-24T15:51:05.463Z,0.80
2023-03-24T15:53:49.082Z,1.23
2023-03-24T15:56:20.279Z,1.02
2023-03-24T15:58:55.966Z,1.15
2023-03-24T16:01:36.106Z,0.82
2023-03-24T16:04:07.055Z,1.13
2023-03-24T16:06:35.679Z,1.20
2023-03-24T16:09:09.466Z,1.00
2023-03-24T16:11:36.300Z,1.27
2023-03-24T16:14:22.684Z,0.90
2023-03-24T16:16:54.121Z,1.10
2023-03-24T16:19:21.065Z,1.30
2023-03-24T16:21:47.885Z,1.40
2023-03-24T16:24:14.655Z,1.10
2023-03-24T16:26:41.455Z,0.85
2023-03-24T16:29:22.924Z,0.77
2023-03-24T16:31:52.775Z,1.05
2023-03-24T16:34:21.422Z,1.15
2023-03-24T16:36:50.401Z,0.93
2023-03-24T16:39:28.651Z,1.55
2023-03-24T16:41:56.633Z,1.25
2023-03-24T16:44:24.578Z,1.15
2023-03-24T16:46:55.615Z,1.02
2023-03-24T16:49:23.952Z,1.27
2023-03-24T16:51:52.777Z,1.20
2023-03-24T16:54:20.878Z,1.20
2023-03-24T16:56:48.161Z,0.80
2023-03-24T16:59:16.018Z,1.48
2023-03-24T17:01:46.011Z,1.05
2023-03-24T17:04:13.571Z,1.35
2023-03-24T17:06:43.789Z,1.20
2023-03-24T17:09:12.618Z,0.77
2023-03-24T17:11:43.198Z,1.25
2023-03-24T17:14:12.388Z,1.67
2023-03-24T17:16:44.450Z,1.20
2023-03-24T17:19:16.605Z,1.17
2023-03-24T17:21:49.209Z,1.00
2023-03-24T17:24:16.739Z,0.95
2023-03-24T17:26:44.004Z,1.30
2023-03-24T17:29:12.807Z,1.25
2023-03-24T17:31:40.522Z,0.90
2023-03-24T17:34:21.654Z,1.10
2023-03-24T17:36:50.532Z,0.90
2023-03-24T17:39:19.426Z,1.50
2023-03-24T17:41:46.515Z,1.48
2023-03-24T17:44:13.672Z,1.17
2023-03-24T17:46:40.739Z,1.33
2023-03-24T17:49:07.685Z,1.30
2023-03-24T17:51:34.907Z,1.13
2023-03-24T17:54:02.590Z,1.50
2023-03-24T17:56:29.901Z,1.05
2023-03-24T17:58:59.151Z,8.32
2023-03-24T18:01:29.424Z,5.00
2023-03-24T18:03:57.145Z,5.90
2023-03-24T18:06:24.248Z,6.15
2023-03-24T18:08:51.957Z,4.13
2023-03-24T18:11:19.487Z,2.90
2023-03-24T18:13:46.521Z,1.70
2023-03-24T18:16:21.473Z,1.13
2023-03-24T18:18:50.701Z,1.42
2023-03-24T18:21:18.029Z,1.10
2023-03-24T18:23:46.790Z,1.25
2023-03-24T18:26:15.188Z,1.30
2023-03-24T18:28:42.825Z,0.90
2023-03-24T18:31:15.915Z,0.95
2023-03-24T18:33:46.064Z,1.10
2023-03-24T18:36:16.489Z,1.20
2023-03-24T18:38:44.437Z,1.17
2023-03-24T18:41:13.912Z,1.33
2023-03-24T18:43:41.386Z,1.00
2023-03-24T18:46:09.850Z,1.13
2023-03-24T18:48:41.957Z,1.05
2023-03-24T18:51:09.980Z,1.10
2023-03-24T18:53:37.733Z,1.27
2023-03-24T18:56:06.769Z,1.60
2023-03-24T18:58:34.346Z,1.48
2023-03-24T19:01:06.939Z,1.10
2023-03-24T19:03:35.914Z,1.40
2023-03-24T19:06:06.929Z,1.10
2023-03-24T19:08:37.881Z,1.27
2023-03-24T19:11:05.637Z,1.45
2023-03-24T19:13:32.531Z,1.35
2023-03-24T19:16:00.315Z,1.20
2023-03-24T19:18:27.604Z,1.35
2023-03-24T19:20:56.208Z,1.20
2023-03-24T19:23:24.507Z,1.33
2023-03-24T19:25:55.406Z,1.27
2023-03-24T19:28:23.974Z,1.45
2023-03-24T19:30:51.099Z,1.27
2023-03-24T19:33:18.521Z,1.00
2023-03-24T19:35:49.553Z,1.48
2023-03-24T19:38:18.090Z,1.20
2023-03-24T19:40:45.576Z,1.45
2023-03-24T19:43:12.829Z,1.10
2023-03-24T19:45:43.103Z,1.15
2023-03-24T19:48:10.850Z,1.25
2023-03-24T19:50:37.840Z,1.30
2023-03-24T19:53:05.018Z,1.92
2023-03-24T19:55:32.483Z,1.83
2023-03-24T19:57:59.804Z,1.25
2023-03-24T20:00:26.999Z,1.67
2023-03-24T20:02:54.275Z,1.70
2023-03-24T20:05:21.864Z,1.45
2023-03-24T20:07:49.445Z,1.42
2023-03-24T20:10:16.821Z,1.55
2023-03-24T20:12:44.115Z,1.38
2023-03-24T20:15:12.127Z,1.40
2023-03-24T20:17:40.513Z,1.75
2023-03-24T20:20:10.254Z,1.73
2023-03-24T20:22:42.132Z,1.15
2023-03-24T20:25:10.326Z,1.42
2023-03-24T20:27:37.656Z,1.55
2023-03-24T20:30:08.141Z,1.50
2023-03-24T20:32:35.612Z,1.58
2023-03-24T20:35:05.448Z,1.20
2023-03-24T20:37:35.762Z,0.90
2023-03-24T20:40:05.397Z,1.70
2023-03-24T20:42:33.590Z,1.33
2023-03-24T20:45:00.491Z,1.55
2023-03-24T20:47:27.793Z,1.35
2023-03-24T20:49:55.380Z,1.35
2023-03-24T20:52:23.640Z,1.40
2023-03-24T20:54:51.527Z,1.55
2023-03-24T20:57:19.287Z,1.58
2023-03-24T20:59:49.419Z,0.80
2023-03-24T21:02:16.946Z,1.60
2023-03-24T21:04:43.915Z,1.77
2023-03-24T21:07:11.390Z,1.20
2023-03-24T21:09:38.645Z,1.08
2023-03-24T21:12:06.750Z,1.02
2023-03-24T21:14:34.513Z,1.35
2023-03-24T21:17:02.221Z,0.98
2023-03-24T21:19:29.453Z,1.38
2023-03-24T21:21:56.328Z,1.23
2023-03-24T21:24:24.292Z,1.05
2023-03-24T21:26:53.942Z,1.10
2023-03-24T21:29:22.549Z,1.10
2023-03-24T21:31:49.926Z,1.00
2023-03-24T21:34:16.992Z,1.48
2023-03-24T21:36:43.922Z,0.80
2023-03-24T21:39:12.140Z,1.02
2023-03-24T21:41:39.888Z,0.98
2023-03-24T21:44:09.568Z,0.95
2023-03-24T21:46:37.045Z,1.20
2023-03-24T21:49:05.043Z,1.00
2023-03-24T21:51:34.620Z,0.77
2023-03-24T21:54:03.449Z,1.10
2023-03-24T21:56:32.248Z,1.38
2023-03-24T21:58:59.622Z,0.82
2023-03-24T22:01:27.243Z,1.00
2023-03-24T22:03:54.779Z,0.85
2023-03-24T22:06:22.866Z,0.98
2023-03-24T22:08:52.939Z,0.93
2023-03-24T22:11:20.073Z,0.93
2023-03-24T22:13:47.398Z,1.10
2023-03-24T22:16:14.711Z,0.82
2023-03-24T22:18:42.371Z,1.00
2023-03-24T22:21:13.180Z,0.98
2023-03-24T22:23:42.528Z,1.02
2023-03-24T22:26:15.580Z,1.23
2023-03-24T22:28:43.179Z,1.20
2023-03-24T22:31:12.974Z,0.98
2023-03-24T22:33:40.686Z,0.98
2023-03-24T22:36:08.906Z,0.88
2023-03-24T22:38:35.733Z,1.05
2023-03-24T22:41:08.179Z,1.05
2023-03-24T22:43:36.405Z,1.00
2023-03-24T22:46:03.676Z,0.90
2023-03-24T22:48:31.312Z,1.10
2023-03-24T22:50:58.590Z,1.00
2023-03-24T22:53:25.791Z,1.15
2023-03-24T22:55:52.782Z,1.02
2023-03-24T22:58:20.408Z,0.80
2023-03-24T23:00:49.868Z,1.00
2023-03-24T23:03:17.212Z,1.00
2023-03-24T23:05:46.056Z,1.08
2023-03-24T23:08:15.076Z,0.88
2023-03-24T23:10:44.205Z,1.08
2023-03-24T23:13:11.625Z,1.08
2023-03-24T23:15:42.697Z,1.00
2023-03-24T23:18:10.392Z,1.30
2023-03-24T23:20:37.739Z,0.73
2023-03-24T23:23:06.693Z,1.05
2023-03-24T23:25:43.110Z,1.20
2023-03-24T23:30:37.369Z,1.13
2023-03-24T23:33:04.651Z,1.00
2023-03-24T23:35:33.195Z,1.00
2023-03-24T23:38:02.316Z,1.10
2023-03-24T23:40:29.545Z,1.00
2023-03-24T23:42:56.378Z,1.20
2023-03-24T23:45:23.311Z,1.17
2023-03-24T23:47:51.626Z,1.10
2023-03-24T23:50:19.675Z,1.20
2023-03-24T23:52:46.933Z,1.20
2023-03-24T23:55:15.610Z,1.52
2023-03-24T23:57:43.101Z,1.02
